Time;durP1;ratioP1;P1;durP2;ratioP2;P2;SDS_P1;SDS_P2;PMS_P1;PMS_P2;Temp;Humidity;BMP_temperature;BMP_pressure;BME280_temperature;BME280_humidity;BME280_pressure;Samples;Min_cycle;Max_cycle;Signal;HPM_P1;HPM_P2
2021/10/13 00:01:54;;;;;;;2.00;1.80;;;;;;;20.33;63.77;100883.36;;;;-53
2021/10/13 00:04:54;;;;;;;1.99;1.81;;;;;;;20.30;63.78;100879.84;;;;-53
2021/10/13 00:07:54;;;;;;;1.77;1.63;;;;;;;20.28;63.90;100874.69;;;;-53
2021/10/13 00:10:54;;;;;;;1.91;1.70;;;;;;;20.29;63.91;100875.09;;;;-53
2021/10/13 00:13:54;;;;;;;1.71;1.61;;;;;;;20.29;63.80;100879.00;;;;-53
2021/10/13 00:16:56;;;;;;;2.15;1.72;;;;;;;20.27;63.90;100880.94;;;;-53
2021/10/13 00:19:54;;;;;;;1.97;1.77;;;;;;;20.25;63.90;100880.86;;;;-52
2021/10/13 00:22:54;;;;;;;2.25;1.61;;;;;;;20.25;63.88;100881.08;;;;-53
2021/10/13 00:25:54;;;;;;;2.09;1.89;;;;;;;20.24;63.89;100879.30;;;;-53
2021/10/13 00:28:54;;;;;;;2.05;1.61;;;;;;;20.23;64.02;100882.03;;;;-53
2021/10/13 00:31:54;;;;;;;1.89;1.71;;;;;;;20.21;63.96;100879.84;;;;-52
2021/10/13 00:34:54;;;;;;;1.60;1.50;;;;;;;20.20;63.92;100878.19;;;;-52
2021/10/13 00:37:54;;;;;;;1.73;1.63;;;;;;;20.19;64.04;100881.02;;;;-53
2021/10/13 00:40:54;;;;;;;2.01;1.81;;;;;;;20.18;64.02;100883.95;;;;-52
2021/10/13 00:43:54;;;;;;;1.75;1.65;;;;;;;20.17;63.95;100889.65;;;;-53
2021/10/13 00:46:54;;;;;;;2.05;1.80;;;;;;;20.16;63.99;100897.84;;;;-52
2021/10/13 00:49:54;;;;;;;2.03;1.83;;;;;;;20.15;64.03;100910.70;;;;-52
2021/10/13 00:52:54;;;;;;;1.91;1.81;;;;;;;20.15;64.01;100915.59;;;;-56
2021/10/13 00:55:56;;;;;;;2.01;1.79;;;;;;;20.14;63.94;100920.44;;;;-56
2021/10/13 00:58:54;;;;;;;1.92;1.72;;;;;;;20.13;63.96;100920.12;;;;-57
2021/10/13 01:01:54;;;;;;;2.71;1.81;;;;;;;20.12;63.97;100921.40;;;;-56
2021/10/13 01:04:54;;;;;;;2.09;1.80;;;;;;;20.11;64.02;100929.45;;;;-57
2021/10/13 01:07:54;;;;;;;1.89;1.72;;;;;;;20.10;63.94;100931.38;;;;-56
2021/10/13 01:10:54;;;;;;;1.89;1.75;;;;;;;20.10;64.03;100930.32;;;;-56
2021/10/13 01:13:54;;;;;;;1.94;1.74;;;;;;;20.08;63.96;100932.25;;;;-56
2021/10/13 01:16:54;;;;;;;2.54;1.80;;;;;;;20.07;63.99;100939.74;;;;-56
2021/10/13 01:19:54;;;;;;;1.73;1.63;;;;;;;20.05;64.05;100948.09;;;;-56
2021/10/13 01:22:54;;;;;;;1.62;1.52;;;;;;;20.06;64.01;100954.44;;;;-56
2021/10/13 01:25:54;;;;;;;1.83;1.73;;;;;;;20.05;63.95;100958.67;;;;-56
2021/10/13 01:28:54;;;;;;;1.68;1.58;;;;;;;20.04;63.99;100961.09;;;;-56
2021/10/13 01:31:54;;;;;;;1.91;1.69;;;;;;;20.02;64.03;100967.16;;;;-56
2021/10/13 01:34:54;;;;;;;1.87;1.69;;;;;;;20.02;64.02;100965.30;;;;-56
2021/10/13 01:37:54;;;;;;;1.89;1.68;;;;;;;20.01;64.09;100968.80;;;;-52
2021/10/13 01:40:54;;;;;;;1.73;1.63;;;;;;;20.01;63.98;100969.69;;;;-53
2021/10/13 01:43:54;;;;;;;1.75;1.50;;;;;;;20.01;63.99;100976.69;;;;-53
2021/10/13 01:46:54;;;;;;;1.70;1.60;;;;;;;19.99;63.93;100976.82;;;;-52
2021/10/13 01:49:54;;;;;;;1.77;1.67;;;;;;;19.98;63.96;100978.66;;;;-53
2021/10/13 01:52:54;;;;;;;1.60;1.50;;;;;;;19.97;63.97;100977.77;;;;-52
2021/10/13 01:55:54;;;;;;;1.77;1.64;;;;;;;19.97;63.99;100975.90;;;;-52
2021/10/13 01:58:54;;;;;;;1.75;1.65;;;;;;;19.95;63.97;100981.89;;;;-52
2021/10/13 02:01:54;;;;;;;1.91;1.75;;;;;;;19.94;64.00;100987.72;;;;-53
2021/10/13 02:04:54;;;;;;;1.83;1.68;;;;;;;19.93;63.86;100989.11;;;;-52
2021/10/13 02:07:54;;;;;;;1.91;1.69;;;;;;;19.92;63.98;100986.50;;;;-52
2021/10/13 02:10:54;;;;;;;1.70;1.60;;;;;;;19.91;63.98;100983.63;;;;-53
2021/10/13 02:13:54;;;;;;;1.84;1.74;;;;;;;19.91;64.02;100984.84;;;;-52
2021/10/13 02:16:54;;;;;;;1.80;1.70;;;;;;;19.90;63.91;100984.69;;;;-52
2021/10/13 02:19:54;;;;;;;2.29;1.74;;;;;;;19.90;64.04;100985.96;;;;-52
2021/10/13 02:22:54;;;;;;;2.43;1.77;;;;;;;19.89;63.94;100991.25;;;;-52
2021/10/13 02:25:54;;;;;;;1.87;1.77;;;;;;;19.88;64.02;100994.18;;;;-52
2021/10/13 02:28:54;;;;;;;1.71;1.61;;;;;;;19.88;63.94;101003.53;;;;-52
2021/10/13 02:31:54;;;;;;;1.89;1.79;;;;;;;19.87;64.01;101001.15;;;;-52
2021/10/13 02:34:54;;;;;;;1.78;1.68;;;;;;;19.86;63.98;101003.91;;;;-53
2021/10/13 02:37:53;;;;;;;1.73;1.63;;;;;;;19.85;64.04;101006.16;;;;-52
2021/10/13 02:40:54;;;;;;;1.73;1.63;;;;;;;19.84;64.03;101007.38;;;;-52
2021/10/13 02:43:54;;;;;;;1.90;1.80;;;;;;;19.83;64.05;101003.05;;;;-52
2021/10/13 02:46:54;;;;;;;1.91;1.73;;;;;;;19.83;64.01;101003.53;;;;-52
2021/10/13 02:49:54;;;;;;;2.09;1.85;;;;;;;19.83;63.95;100996.62;;;;-52
2021/10/13 02:52:54;;;;;;;2.37;1.85;;;;;;;19.82;63.95;100998.66;;;;-52
2021/10/13 02:55:54;;;;;;;1.76;1.65;;;;;;;19.81;63.94;100996.83;;;;-52
2021/10/13 02:58:54;;;;;;;1.70;1.60;;;;;;;19.81;63.88;101004.64;;;;-52
2021/10/13 03:01:54;;;;;;;1.73;1.63;;;;;;;19.81;63.93;101008.47;;;;-53
2021/10/13 03:04:54;;;;;;;1.69;1.59;;;;;;;19.79;63.98;101013.64;;;;-52
2021/10/13 03:07:54;;;;;;;1.83;1.73;;;;;;;19.78;63.97;101011.85;;;;-52
2021/10/13 03:10:54;;;;;;;1.84;1.74;;;;;;;19.77;64.03;101017.92;;;;-52
2021/10/13 03:13:54;;;;;;;1.69;1.59;;;;;;;19.77;63.99;101022.16;;;;-52
2021/10/13 03:16:54;;;;;;;1.71;1.61;;;;;;;19.76;64.02;101029.06;;;;-52
2021/10/13 03:19:54;;;;;;;1.72;1.62;;;;;;;19.74;64.02;101029.52;;;;-52
2021/10/13 03:22:54;;;;;;;1.87;1.73;;;;;;;19.75;63.99;101026.35;;;;-52
2021/10/13 03:25:54;;;;;;;2.08;1.63;;;;;;;19.75;63.99;101027.98;;;;-52
2021/10/13 03:28:54;;;;;;;1.96;1.75;;;;;;;19.73;64.08;101024.37;;;;-53
2021/10/13 03:31:54;;;;;;;1.67;1.57;;;;;;;19.73;64.06;101027.05;;;;-53
2021/10/13 03:34:54;;;;;;;1.91;1.71;;;;;;;19.72;63.98;101021.20;;;;-53
2021/10/13 03:37:54;;;;;;;1.90;1.80;;;;;;;19.71;64.07;101023.12;;;;-53
2021/10/13 03:40:54;;;;;;;1.75;1.65;;;;;;;19.70;63.97;101035.64;;;;-54
2021/10/13 03:43:54;;;;;;;1.80;1.70;;;;;;;19.69;63.97;101044.69;;;;-53
2021/10/13 03:46:54;;;;;;;1.70;1.60;;;;;;;19.70;64.03;101057.16;;;;-53
2021/10/13 03:49:54;;;;;;;2.01;1.85;;;;;;;19.69;63.98;101065.19;;;;-54
2021/10/13 03:52:54;;;;;;;3.90;1.94;;;;;;;19.72;63.14;101072.43;;;;-54
2021/10/13 03:55:54;;;;;;;6.75;4.36;;;;;;;19.39;57.28;101075.53;;;;-53
2021/10/13 03:58:54;;;;;;;5.52;4.87;;;;;;;19.12;56.10;101081.82;;;;-53
2021/10/13 04:01:54;;;;;;;5.69;5.09;;;;;;;18.90;55.08;101081.90;;;;-53
2021/10/13 04:04:53;;;;;;;7.33;5.65;;;;;;;18.91;53.60;101081.69;;;;-53
2021/10/13 04:07:54;;;;;;;11.59;5.71;;;;;;;18.73;52.58;101079.20;;;;-53
2021/10/13 04:10:54;;;;;;;6.77;6.03;;;;;;;18.50;52.12;101079.31;;;;-53
2021/10/13 04:13:54;;;;;;;7.92;5.82;;;;;;;18.29;52.24;101087.73;;;;-53
2021/10/13 04:16:54;;;;;;;7.43;5.49;;;;;;;17.95;53.36;101084.69;;;;-53
2021/10/13 04:19:54;;;;;;;7.28;5.83;;;;;;;17.82;53.90;101085.27;;;;-53
2021/10/13 04:22:54;;;;;;;6.98;4.93;;;;;;;17.91;54.73;101084.72;;;;-51
2021/10/13 04:25:54;;;;;;;6.94;4.51;;;;;;;18.13;56.49;101092.32;;;;-53
2021/10/13 04:28:54;;;;;;;5.13;4.21;;;;;;;18.28;56.99;101096.24;;;;-52
2021/10/13 04:31:54;;;;;;;4.23;3.83;;;;;;;18.40;57.17;101100.61;;;;-52
2021/10/13 04:34:54;;;;;;;7.64;3.47;;;;;;;18.49;57.91;101096.64;;;;-54
2021/10/13 04:37:54;;;;;;;4.11;3.41;;;;;;;18.55;58.19;101100.74;;;;-54
2021/10/13 04:40:54;;;;;;;4.91;3.11;;;;;;;18.60;57.95;101099.97;;;;-54
2021/10/13 04:43:54;;;;;;;3.59;2.91;;;;;;;18.65;58.54;101100.22;;;;-54
2021/10/13 04:46:54;;;;;;;3.43;2.57;;;;;;;18.69;58.84;101100.14;;;;-54
2021/10/13 04:49:54;;;;;;;3.41;2.61;;;;;;;18.73;59.08;101102.41;;;;-54
2021/10/13 04:52:53;;;;;;;2.79;2.51;;;;;;;18.75;59.27;101101.97;;;;-54
2021/10/13 04:55:54;;;;;;;2.65;2.35;;;;;;;18.78;59.53;101101.67;;;;-54
2021/10/13 04:58:54;;;;;;;3.24;2.24;;;;;;;18.82;59.67;101103.42;;;;-57
2021/10/13 05:01:53;;;;;;;4.62;2.39;;;;;;;18.83;59.89;101102.33;;;;-58
2021/10/13 05:04:54;;;;;;;2.53;2.30;;;;;;;18.86;60.01;101108.13;;;;-58
2021/10/13 05:07:54;;;;;;;2.41;2.10;;;;;;;18.89;60.11;101110.23;;;;-58
2021/10/13 05:10:54;;;;;;;2.16;1.96;;;;;;;18.90;60.27;101110.97;;;;-57
2021/10/13 05:13:54;;;;;;;2.17;1.89;;;;;;;18.92;60.43;101109.72;;;;-52
2021/10/13 05:16:54;;;;;;;2.29;2.05;;;;;;;18.94;60.44;101112.11;;;;-52
2021/10/13 05:19:54;;;;;;;2.51;1.90;;;;;;;18.95;60.53;101113.12;;;;-53
2021/10/13 05:22:54;;;;;;;2.19;1.93;;;;;;;18.98;60.61;101117.87;;;;-52
2021/10/13 05:25:53;;;;;;;2.59;1.91;;;;;;;19.00;60.64;101124.56;;;;-52
2021/10/13 05:28:54;;;;;;;1.97;1.78;;;;;;;19.01;60.78;101127.53;;;;-54
2021/10/13 05:31:54;;;;;;;1.97;1.79;;;;;;;19.02;60.80;101130.38;;;;-54
2021/10/13 05:34:53;;;;;;;2.07;1.87;;;;;;;19.03;60.90;101134.80;;;;-54
2021/10/13 05:37:54;;;;;;;2.49;1.89;;;;;;;19.05;60.90;101143.73;;;;-54
2021/10/13 05:40:54;;;;;;;1.87;1.77;;;;;;;19.06;60.92;101151.73;;;;-54
2021/10/13 05:43:54;;;;;;;2.64;1.70;;;;;;;19.06;60.99;101158.16;;;;-54
2021/10/13 05:46:54;;;;;;;2.15;1.66;;;;;;;19.07;61.09;101161.20;;;;-54
2021/10/13 05:49:53;;;;;;;2.93;1.71;;;;;;;19.09;61.12;101165.75;;;;-53
2021/10/13 05:52:54;;;;;;;2.32;1.83;;;;;;;19.10;61.17;101165.70;;;;-57
2021/10/13 05:55:54;;;;;;;1.91;1.75;;;;;;;19.10;61.14;101172.37;;;;-57
2021/10/13 05:58:54;;;;;;;2.02;1.82;;;;;;;19.11;61.24;101179.11;;;;-58
2021/10/13 06:01:54;;;;;;;1.89;1.75;;;;;;;19.11;61.20;101179.69;;;;-58
2021/10/13 06:04:54;;;;;;;1.75;1.65;;;;;;;19.12;61.26;101187.36;;;;-58
2021/10/13 06:07:54;;;;;;;1.90;1.69;;;;;;;19.12;61.31;101186.95;;;;-58
2021/10/13 06:10:54;;;;;;;1.81;1.64;;;;;;;19.13;61.31;101191.91;;;;-58
2021/10/13 06:13:53;;;;;;;1.83;1.58;;;;;;;19.13;61.42;101199.47;;;;-58
2021/10/13 06:16:54;;;;;;;3.07;1.89;;;;;;;19.14;61.38;101205.03;;;;-58
2021/10/13 06:19:54;;;;;;;1.80;1.70;;;;;;;19.14;61.43;101213.80;;;;-57
2021/10/13 06:22:54;;;;;;;1.91;1.74;;;;;;;19.14;61.42;101214.30;;;;-57
2021/10/13 06:25:54;;;;;;;2.03;1.81;;;;;;;19.14;61.46;101215.10;;;;-57
2021/10/13 06:28:54;;;;;;;2.11;1.75;;;;;;;19.15;61.50;101220.88;;;;-58
2021/10/13 06:31:54;;;;;;;1.93;1.75;;;;;;;19.15;61.51;101214.13;;;;-58
2021/10/13 06:34:54;;;;;;;1.85;1.75;;;;;;;19.15;61.57;101208.12;;;;-57
2021/10/13 06:37:53;;;;;;;1.83;1.73;;;;;;;19.15;61.59;101209.09;;;;-57
2021/10/13 06:40:54;;;;;;;1.95;1.72;;;;;;;19.15;61.59;101211.38;;;;-58
2021/10/13 06:43:54;;;;;;;2.29;1.88;;;;;;;19.15;61.59;101219.91;;;;-52
2021/10/13 06:46:54;;;;;;;1.79;1.67;;;;;;;19.15;61.61;101229.25;;;;-52
2021/10/13 06:49:54;;;;;;;1.79;1.65;;;;;;;19.15;61.67;101232.25;;;;-52
2021/10/13 06:52:54;;;;;;;1.83;1.70;;;;;;;19.15;61.68;101229.73;;;;-58
2021/10/13 06:55:54;;;;;;;2.20;1.67;;;;;;;19.15;61.66;101234.20;;;;-58
2021/10/13 06:58:54;;;;;;;2.00;1.82;;;;;;;19.15;61.70;101241.59;;;;-58
2021/10/13 07:01:54;;;;;;;2.49;1.65;;;;;;;19.14;61.76;101237.29;;;;-55
2021/10/13 07:04:54;;;;;;;1.77;1.67;;;;;;;19.14;61.81;101245.66;;;;-57
2021/10/13 07:07:54;;;;;;;2.33;1.73;;;;;;;19.14;61.82;101245.90;;;;-54
2021/10/13 07:10:54;;;;;;;1.93;1.77;;;;;;;19.13;61.82;101246.95;;;;-54
2021/10/13 07:13:54;;;;;;;2.88;1.81;;;;;;;19.13;61.84;101241.88;;;;-54
2021/10/13 07:16:54;;;;;;;1.77;1.67;;;;;;;19.13;61.89;101246.30;;;;-54
2021/10/13 07:19:55;;;;;;;2.25;1.71;;;;;;;19.13;61.96;101248.95;;;;-54
2021/10/13 07:22:54;;;;;;;2.19;1.81;;;;;;;19.13;61.95;101246.95;;;;-54
2021/10/13 07:25:53;;;;;;;1.99;1.80;;;;;;;19.13;61.96;101250.98;;;;-54
2021/10/13 07:28:53;;;;;;;2.01;1.81;;;;;;;19.13;61.98;101248.30;;;;-52
2021/10/13 07:31:54;;;;;;;2.56;1.79;;;;;;;19.12;61.99;101243.34;;;;-52
2021/10/13 07:34:53;;;;;;;1.79;1.69;;;;;;;19.13;62.03;101248.62;;;;-57
2021/10/13 07:37:54;;;;;;;1.93;1.72;;;;;;;19.13;62.06;101255.73;;;;-57
2021/10/13 07:40:54;;;;;;;1.65;1.55;;;;;;;19.13;62.12;101261.30;;;;-58
2021/10/13 07:43:53;;;;;;;1.78;1.68;;;;;;;19.13;62.12;101265.03;;;;-58
2021/10/13 07:46:54;;;;;;;2.38;1.81;;;;;;;19.12;62.12;101266.25;;;;-57
2021/10/13 07:49:53;;;;;;;1.80;1.70;;;;;;;19.13;62.13;101275.44;;;;-58
2021/10/13 07:52:53;;;;;;;1.79;1.67;;;;;;;19.13;62.17;101278.12;;;;-58
2021/10/13 07:55:54;;;;;;;1.70;1.60;;;;;;;19.12;62.21;101279.58;;;;-58
2021/10/13 07:58:54;;;;;;;2.47;1.74;;;;;;;19.12;62.20;101286.41;;;;-57
2021/10/13 08:01:53;;;;;;;1.80;1.70;;;;;;;19.13;62.19;101286.32;;;;-57
2021/10/13 08:04:54;;;;;;;2.03;1.83;;;;;;;19.12;62.24;101287.70;;;;-52
2021/10/13 08:07:54;;;;;;;1.80;1.70;;;;;;;19.12;62.19;101299.89;;;;-52
2021/10/13 08:10:54;;;;;;;1.89;1.71;;;;;;;19.12;62.28;101309.88;;;;-52
2021/10/13 08:13:54;;;;;;;2.67;1.86;;;;;;;19.14;62.22;101311.63;;;;-51
2021/10/13 08:16:53;;;;;;;3.21;1.87;;;;;;;19.16;62.43;101313.05;;;;-47
2021/10/13 08:19:54;;;;;;;2.27;1.90;;;;;;;19.19;62.54;101318.22;;;;-52
2021/10/13 08:22:53;;;;;;;1.99;1.63;;;;;;;19.23;62.45;101314.09;;;;-53
2021/10/13 08:25:55;;;;;;;2.05;1.73;;;;;;;19.28;62.61;101317.10;;;;-53
2021/10/13 08:28:54;;;;;;;2.84;1.66;;;;;;;19.34;62.92;101314.38;;;;-54
2021/10/13 08:31:53;;;;;;;2.05;1.78;;;;;;;19.39;62.87;101320.28;;;;-56
2021/10/13 08:34:54;;;;;;;2.67;1.70;;;;;;;19.44;62.89;101314.84;;;;-54
2021/10/13 08:37:54;;;;;;;2.03;1.71;;;;;;;19.50;63.10;101308.13;;;;-53
2021/10/13 08:40:53;;;;;;;2.49;1.67;;;;;;;19.57;63.15;101306.83;;;;-53
2021/10/13 08:43:54;;;;;;;2.75;1.51;;;;;;;19.62;63.12;101305.20;;;;-49
2021/10/13 08:46:54;;;;;;;2.77;1.82;;;;;;;19.67;63.17;101306.12;;;;-50
2021/10/13 08:49:56;;;;;;;4.85;1.91;;;;;;;19.73;63.56;101300.55;;;;-52
2021/10/13 08:52:54;;;;;;;3.16;1.75;;;;;;;19.78;62.99;101297.00;;;;-54
2021/10/13 08:55:54;;;;;;;3.23;1.60;;;;;;;19.80;62.87;101298.42;;;;-52
2021/10/13 08:58:53;;;;;;;3.72;1.61;;;;;;;19.82;62.69;101302.53;;;;-52
2021/10/13 09:01:54;;;;;;;2.79;1.73;;;;;;;19.86;62.75;101304.28;;;;-47
2021/10/13 09:04:53;;;;;;;7.81;1.83;;;;;;;19.92;62.95;101306.91;;;;-51
2021/10/13 09:07:54;;;;;;;14.19;2.29;;;;;;;19.94;62.98;101308.91;;;;-48
2021/10/13 09:10:54;;;;;;;16.75;2.64;;;;;;;20.00;62.63;101315.60;;;;-48
2021/10/13 09:13:53;;;;;;;15.89;2.93;;;;;;;20.03;62.30;101317.71;;;;-57
2021/10/13 09:16:54;;;;;;;31.68;5.26;;;;;;;19.92;60.34;101315.81;;;;-55
2021/10/13 09:19:54;;;;;;;17.39;6.60;;;;;;;19.75;59.12;101326.29;;;;-54
2021/10/13 09:22:53;;;;;;;15.12;6.50;;;;;;;19.59;59.01;101323.86;;;;-50
2021/10/13 09:25:53;;;;;;;12.21;6.53;;;;;;;19.51;58.50;101323.86;;;;-53
2021/10/13 09:28:54;;;;;;;12.01;6.98;;;;;;;19.41;58.58;101324.95;;;;-54
2021/10/13 09:31:53;;;;;;;10.01;6.62;;;;;;;19.40;58.97;101327.44;;;;-57
2021/10/13 09:34:54;;;;;;;14.36;6.63;;;;;;;19.41;59.01;101330.64;;;;-57
2021/10/13 09:37:53;;;;;;;11.37;6.48;;;;;;;19.41;58.65;101330.39;;;;-52
2021/10/13 09:40:53;;;;;;;10.55;6.23;;;;;;;19.39;58.41;101337.34;;;;-51
2021/10/13 09:43:54;;;;;;;12.46;6.34;;;;;;;19.37;58.39;101330.56;;;;-53
2021/10/13 09:46:53;;;;;;;17.64;6.39;;;;;;;19.32;58.20;101331.20;;;;-59
2021/10/13 09:49:54;;;;;;;8.49;6.55;;;;;;;19.32;58.09;101328.92;;;;-51
2021/10/13 09:52:54;;;;;;;11.75;6.49;;;;;;;19.29;58.08;101328.68;;;;-52
2021/10/13 09:55:53;;;;;;;13.04;5.88;;;;;;;19.38;58.84;101329.38;;;;-52
2021/10/13 09:58:54;;;;;;;7.29;4.97;;;;;;;19.47;59.44;101331.17;;;;-57
2021/10/13 10:01:54;;;;;;;7.43;4.39;;;;;;;19.54;59.75;101333.42;;;;-59
2021/10/13 10:04:53;;;;;;;6.35;4.12;;;;;;;19.61;60.07;101332.92;;;;-58
2021/10/13 10:07:54;;;;;;;5.83;3.87;;;;;;;19.67;60.34;101333.78;;;;-57
2021/10/13 10:10:53;;;;;;;5.15;3.51;;;;;;;19.73;60.50;101336.50;;;;-55
2021/10/13 10:13:54;;;;;;;6.21;3.59;;;;;;;19.78;60.61;101333.93;;;;-58
2021/10/13 10:16:54;;;;;;;7.69;3.51;;;;;;;19.84;60.79;101337.70;;;;-60
2021/10/13 10:19:53;;;;;;;4.83;3.19;;;;;;;19.88;60.88;101332.49;;;;-58
2021/10/13 10:22:53;;;;;;;6.05;3.21;;;;;;;19.90;59.75;101334.56;;;;-60
2021/10/13 10:25:54;;;;;;;5.69;3.10;;;;;;;19.94;59.87;101330.05;;;;-61
2021/10/13 10:28:53;;;;;;;6.45;3.01;;;;;;;19.96;60.11;101330.25;;;;-61
2021/10/13 10:31:54;;;;;;;4.19;2.89;;;;;;;19.99;60.14;101338.55;;;;-61
2021/10/13 10:34:54;;;;;;;4.19;2.88;;;;;;;20.02;60.25;101343.95;;;;-61
2021/10/13 10:37:53;;;;;;;5.09;2.82;;;;;;;20.03;60.25;101341.95;;;;-61
2021/10/13 10:40:54;;;;;;;4.44;2.78;;;;;;;20.05;60.29;101342.40;;;;-60
2021/10/13 10:43:53;;;;;;;5.48;2.71;;;;;;;20.07;60.33;101342.27;;;;-53
2021/10/13 10:46:53;;;;;;;4.23;2.79;;;;;;;20.08;60.38;101344.88;;;;-53
2021/10/13 10:49:54;;;;;;;2.92;2.59;;;;;;;20.08;60.39;101342.77;;;;-53
2021/10/13 10:52:54;;;;;;;4.31;2.73;;;;;;;20.10;60.41;101343.53;;;;-53
2021/10/13 10:55:54;;;;;;;4.19;2.66;;;;;;;20.12;60.44;101341.05;;;;-53
2021/10/13 10:58:53;;;;;;;4.23;2.53;;;;;;;20.13;60.50;101341.94;;;;-53
2021/10/13 11:01:53;;;;;;;3.89;2.60;;;;;;;20.14;60.52;101343.61;;;;-53
2021/10/13 11:04:53;;;;;;;2.68;2.32;;;;;;;20.15;60.58;101341.90;;;;-53
2021/10/13 11:07:53;;;;;;;3.31;2.53;;;;;;;20.16;60.63;101343.40;;;;-53
2021/10/13 11:10:53;;;;;;;2.69;2.39;;;;;;;20.17;60.65;101346.73;;;;-53
2021/10/13 11:13:54;;;;;;;3.06;2.35;;;;;;;20.18;60.65;101342.13;;;;-54
2021/10/13 11:16:54;;;;;;;2.73;2.32;;;;;;;20.19;60.67;101342.00;;;;-53
2021/10/13 11:19:53;;;;;;;2.94;2.44;;;;;;;20.21;60.69;101339.89;;;;-53
2021/10/13 11:22:54;;;;;;;3.25;2.45;;;;;;;20.22;60.74;101342.20;;;;-54
2021/10/13 11:25:53;;;;;;;3.15;2.27;;;;;;;20.23;60.74;101342.00;;;;-53
2021/10/13 11:28:54;;;;;;;3.24;2.28;;;;;;;20.24;60.74;101338.66;;;;-54
2021/10/13 11:31:53;;;;;;;2.74;2.40;;;;;;;20.25;60.78;101336.70;;;;-59
2021/10/13 11:34:53;;;;;;;2.41;2.20;;;;;;;20.26;60.80;101338.45;;;;-59
2021/10/13 11:37:54;;;;;;;2.75;2.11;;;;;;;20.26;60.83;101340.89;;;;-53
2021/10/13 11:40:53;;;;;;;2.81;2.29;;;;;;;20.28;60.82;101345.48;;;;-53
2021/10/13 11:43:53;;;;;;;2.76;2.23;;;;;;;20.29;60.84;101340.44;;;;-53
2021/10/13 11:46:54;;;;;;;2.76;2.12;;;;;;;20.30;60.88;101341.86;;;;-53
2021/10/13 11:49:54;;;;;;;2.40;2.20;;;;;;;20.31;60.88;101342.02;;;;-54
2021/10/13 11:52:54;;;;;;;2.43;2.23;;;;;;;20.32;60.90;101339.53;;;;-53
2021/10/13 11:55:54;;;;;;;2.37;2.17;;;;;;;20.33;60.87;101343.61;;;;-54
2021/10/13 11:58:53;;;;;;;2.42;2.21;;;;;;;20.34;60.91;101341.36;;;;-54
2021/10/13 12:01:53;;;;;;;2.71;2.15;;;;;;;20.35;60.89;101341.12;;;;-54
2021/10/13 12:04:54;;;;;;;2.40;2.19;;;;;;;20.36;60.94;101341.20;;;;-53
2021/10/13 12:07:53;;;;;;;2.68;2.26;;;;;;;20.36;60.95;101339.36;;;;-53
2021/10/13 12:10:54;;;;;;;2.53;2.19;;;;;;;20.37;60.93;101336.51;;;;-54
2021/10/13 12:13:54;;;;;;;3.15;2.23;;;;;;;20.37;60.97;101331.95;;;;-53
2021/10/13 12:16:53;;;;;;;2.49;2.18;;;;;;;20.38;60.96;101332.11;;;;-53
2021/10/13 12:19:54;;;;;;;4.65;2.28;;;;;;;20.40;61.07;101330.03;;;;-48
2021/10/13 12:22:54;;;;;;;6.37;2.94;;;;;;;20.41;61.33;101321.11;;;;-49
2021/10/13 12:25:53;;;;;;;3.32;2.54;;;;;;;20.47;61.83;101326.83;;;;-51
2021/10/13 12:28:54;;;;;;;9.03;2.88;;;;;;;20.51;61.70;101325.02;;;;-51
2021/10/13 12:31:53;;;;;;;4.32;2.56;;;;;;;20.52;61.56;101321.92;;;;-51
2021/10/13 12:34:54;;;;;;;4.62;3.01;;;;;;;20.50;60.45;101324.91;;;;-56
2021/10/13 12:37:54;;;;;;;3.36;2.57;;;;;;;20.51;60.91;101320.54;;;;-58
2021/10/13 12:40:53;;;;;;;4.17;2.69;;;;;;;20.53;61.10;101317.64;;;;-59
2021/10/13 12:43:53;;;;;;;6.92;2.93;;;;;;;20.58;61.85;101317.33;;;;-61
2021/10/13 12:46:53;;;;;;;4.83;2.63;;;;;;;20.62;62.25;101318.78;;;;-52
2021/10/13 12:49:54;;;;;;;3.61;2.50;;;;;;;20.66;62.18;101317.21;;;;-51
2021/10/13 12:52:55;;;;;;;5.11;2.59;;;;;;;20.68;61.76;101318.71;;;;-50
2021/10/13 12:55:53;;;;;;;7.50;2.59;;;;;;;20.70;61.91;101319.06;;;;-54
2021/10/13 12:58:53;;;;;;;7.16;2.60;;;;;;;20.71;61.93;101321.22;;;;-61
2021/10/13 13:01:54;;;;;;;9.86;2.66;;;;;;;20.73;61.97;101319.53;;;;-60
2021/10/13 13:04:55;;;;;;;7.21;2.55;;;;;;;20.74;62.00;101314.23;;;;-53
2021/10/13 13:07:53;;;;;;;5.01;2.51;;;;;;;20.76;62.10;101318.02;;;;-54
2021/10/13 13:10:53;;;;;;;5.38;2.89;;;;;;;20.75;61.67;101311.09;;;;-49
2021/10/13 13:13:53;;;;;;;4.18;2.48;;;;;;;20.77;61.85;101305.39;;;;-51
2021/10/13 13:16:53;;;;;;;5.31;2.45;;;;;;;20.78;61.82;101307.13;;;;-54
2021/10/13 13:19:53;;;;;;;5.48;2.71;;;;;;;20.79;61.74;101313.81;;;;-57
2021/10/13 13:22:53;;;;;;;6.57;2.47;;;;;;;20.79;61.95;101308.44;;;;-56
2021/10/13 13:25:54;;;;;;;5.03;2.46;;;;;;;20.81;62.00;101313.44;;;;-57
2021/10/13 13:28:53;;;;;;;3.99;2.52;;;;;;;20.83;61.72;101312.24;;;;-53
2021/10/13 13:31:53;;;;;;;4.08;2.51;;;;;;;20.84;61.71;101309.34;;;;-52
2021/10/13 13:34:54;;;;;;;3.59;2.42;;;;;;;20.86;61.71;101312.14;;;;-52
2021/10/13 13:37:53;;;;;;;7.24;2.50;;;;;;;20.87;62.02;101313.20;;;;-52
2021/10/13 13:40:53;;;;;;;6.78;2.44;;;;;;;20.89;61.88;101315.10;;;;-50
2021/10/13 13:43:53;;;;;;;5.26;2.46;;;;;;;20.91;61.81;101315.70;;;;-59
2021/10/13 13:46:53;;;;;;;4.33;2.36;;;;;;;20.92;61.75;101316.62;;;;-56
2021/10/13 13:49:54;;;;;;;3.53;2.29;;;;;;;20.93;61.77;101314.27;;;;-59
2021/10/13 13:52:53;;;;;;;3.47;2.39;;;;;;;20.95;61.65;101315.59;;;;-57
2021/10/13 13:55:54;;;;;;;4.39;2.39;;;;;;;20.96;61.69;101315.70;;;;-60
2021/10/13 13:58:54;;;;;;;2.73;2.33;;;;;;;20.95;61.76;101316.00;;;;-58
2021/10/13 14:01:53;;;;;;;2.57;2.19;;;;;;;20.98;61.70;101325.19;;;;-58
2021/10/13 14:04:55;;;;;;;3.21;2.39;;;;;;;20.98;61.56;101326.16;;;;-64
2021/10/13 14:07:54;;;;;;;4.22;2.13;;;;;;;20.99;61.58;101330.41;;;;-60
2021/10/13 14:10:55;;;;;;;2.69;2.35;;;;;;;21.01;61.52;101332.80;;;;-60
2021/10/13 14:13:53;;;;;;;3.48;2.24;;;;;;;21.02;61.54;101338.17;;;;-54
2021/10/13 14:16:53;;;;;;;4.95;2.38;;;;;;;21.04;61.66;101340.23;;;;-56
2021/10/13 14:19:53;;;;;;;3.01;2.18;;;;;;;21.05;61.67;101339.94;;;;-60
2021/10/13 14:22:54;;;;;;;3.58;2.20;;;;;;;21.05;61.59;101343.37;;;;-55
2021/10/13 14:25:53;;;;;;;2.56;2.24;;;;;;;21.05;61.58;101348.17;;;;-57
2021/10/13 14:28:54;;;;;;;2.46;2.24;;;;;;;21.05;61.60;101350.12;;;;-56
2021/10/13 14:31:54;;;;;;;2.43;2.19;;;;;;;21.07;61.62;101347.95;;;;-49
2021/10/13 14:34:54;;;;;;;3.53;2.20;;;;;;;21.08;61.64;101346.41;;;;-56
2021/10/13 14:37:53;;;;;;;4.27;2.21;;;;;;;21.08;61.43;101348.77;;;;-53
2021/10/13 14:40:54;;;;;;;3.35;2.34;;;;;;;21.08;61.06;101345.19;;;;-52
2021/10/13 14:43:53;;;;;;;5.39;2.54;;;;;;;21.07;61.13;101340.05;;;;-51
2021/10/13 14:46:53;;;;;;;3.76;2.19;;;;;;;21.06;61.32;101336.80;;;;-54
2021/10/13 14:49:53;;;;;;;3.39;2.19;;;;;;;21.08;61.43;101343.39;;;;-56
2021/10/13 14:52:53;;;;;;;2.72;2.04;;;;;;;21.08;61.62;101344.78;;;;-60
2021/10/13 14:55:54;;;;;;;3.46;2.17;;;;;;;21.08;61.49;101347.63;;;;-55
2021/10/13 14:58:54;;;;;;;2.38;2.05;;;;;;;21.09;61.55;101347.83;;;;-54
2021/10/13 15:01:53;;;;;;;2.41;1.99;;;;;;;21.09;61.60;101348.48;;;;-57
2021/10/13 15:04:54;;;;;;;4.94;2.35;;;;;;;21.09;61.62;101354.67;;;;-52
2021/10/13 15:07:53;;;;;;;4.03;2.13;;;;;;;21.11;61.57;101365.05;;;;-57
2021/10/13 15:10:53;;;;;;;2.63;2.11;;;;;;;21.10;61.59;101372.11;;;;-57
2021/10/13 15:13:54;;;;;;;3.25;2.01;;;;;;;21.12;61.54;101381.03;;;;-50
2021/10/13 15:16:53;;;;;;;3.53;2.11;;;;;;;21.12;61.53;101357.96;;;;-50
2021/10/13 15:19:54;;;;;;;3.41;1.89;;;;;;;21.13;61.49;101366.55;;;;-55
2021/10/13 15:22:56;;;;;;;2.28;2.06;;;;;;;21.13;61.64;101369.16;;;;-56
2021/10/13 15:25:53;;;;;;;2.54;2.01;;;;;;;21.14;61.67;101366.63;;;;-53
2021/10/13 15:28:53;;;;;;;3.10;2.03;;;;;;;21.14;61.57;101363.69;;;;-51
2021/10/13 15:31:53;;;;;;;1.98;1.80;;;;;;;21.14;61.51;101357.50;;;;-55
2021/10/13 15:34:54;;;;;;;2.19;1.99;;;;;;;21.14;61.53;101358.55;;;;-52
2021/10/13 15:37:53;;;;;;;2.82;2.00;;;;;;;21.14;61.64;101359.62;;;;-57
2021/10/13 15:40:53;;;;;;;2.26;2.04;;;;;;;21.15;61.60;101355.98;;;;-59
2021/10/13 15:43:53;;;;;;;2.65;2.12;;;;;;;21.16;61.48;101358.59;;;;-57
2021/10/13 15:46:53;;;;;;;3.44;1.96;;;;;;;21.15;61.29;101361.28;;;;-53
2021/10/13 15:49:53;;;;;;;2.58;2.00;;;;;;;21.14;61.34;101366.88;;;;-51
2021/10/13 15:53:02;;;;;;;3.09;2.19;;;;;;;21.13;61.53;101364.27;;;;-51
2021/10/13 15:55:54;;;;;;;2.18;1.95;;;;;;;21.14;61.55;101366.14;;;;-49
2021/10/13 15:59:07;;;;;;;3.39;1.91;;;;;;;21.15;61.67;101370.73;;;;-50
2021/10/13 16:01:53;;;;;;;2.26;1.90;;;;;;;21.16;61.72;101366.91;;;;-51
2021/10/13 16:04:53;;;;;;;2.45;1.95;;;;;;;21.17;61.69;101370.27;;;;-52
2021/10/13 16:07:53;;;;;;;2.49;2.04;;;;;;;21.18;61.67;101370.02;;;;-60
2021/10/13 16:10:53;;;;;;;2.66;1.90;;;;;;;21.20;61.77;101369.89;;;;-61
2021/10/13 16:13:53;;;;;;;2.17;1.97;;;;;;;21.21;61.83;101369.76;;;;-60
2021/10/13 16:16:53;;;;;;;3.53;2.01;;;;;;;21.21;61.81;101362.42;;;;-59
2021/10/13 16:19:53;;;;;;;4.80;2.18;;;;;;;21.22;61.79;101363.16;;;;-57
2021/10/13 16:22:53;;;;;;;3.75;1.99;;;;;;;21.24;61.86;101366.12;;;;-57
2021/10/13 16:25:54;;;;;;;3.08;2.02;;;;;;;21.24;61.73;101373.21;;;;-55
2021/10/13 16:28:53;;;;;;;2.49;1.96;;;;;;;21.25;61.85;101378.91;;;;-57
2021/10/13 16:31:53;;;;;;;2.09;1.89;;;;;;;21.26;61.86;101379.52;;;;-49
2021/10/13 16:34:53;;;;;;;2.56;1.79;;;;;;;21.26;61.86;101385.87;;;;-55
2021/10/13 16:37:53;;;;;;;2.17;1.97;;;;;;;21.26;61.97;101387.18;;;;-51
2021/10/13 16:40:53;;;;;;;2.91;1.89;;;;;;;21.26;61.90;101383.59;;;;-49